Rockwall's Hourly Summary for Thursday, July 5, 2018
Hour Temp
(f)
RH
(%)
Solar Rad.
(MJ/m2)
Rainfall
(in)
Wind
(mph)
7/5/2018 12:00 AM 79 70 0 0 4.59
7/5/2018 1:00 AM 77 72 0 0 1.7
7/5/2018 2:00 AM 76 75 0 0 0
7/5/2018 3:00 AM 74 79 0 0 0
7/5/2018 4:00 AM 73 84 0 0 0
7/5/2018 5:00 AM 72 85 0 0 0
7/5/2018 6:00 AM 72 87 0 0 0
7/5/2018 7:00 AM 71 93 0.03 0 0
7/5/2018 8:00 AM 75 76 0.49 0 0
7/5/2018 9:00 AM 79 67 1.12 0 0.85
7/5/2018 10:00 AM 84 62 1.86 0 0.86
7/5/2018 11:00 AM 86 59 2.23 0 1.13
7/5/2018 12:00 PM 88 56 2.75 0 1.8
7/5/2018 1:00 PM 89 53 1.93 0 2.08
7/5/2018 2:00 PM 90 48 2.07 0 1.85
7/5/2018 3:00 PM 94 41 3.03 0 2.75
7/5/2018 4:00 PM 95 38 2.72 0 3.55
7/5/2018 5:00 PM 96 41 1.84 0 3.06
7/5/2018 6:00 PM 96 38 1.4 0 2.21
7/5/2018 7:00 PM 93 41 0.41 0 4.57
7/5/2018 8:00 PM 81 61 0.15 0.06 1.39
7/5/2018 9:00 PM 81 74 0.03 0 0
7/5/2018 10:00 PM 80 74 0 0 0
7/5/2018 11:00 PM 80 74 0 0 0.22
Data Summary 82 64 22.06 0.06 1.36